KGYY Airport (Gary/Chicago Intl) Information

FAA: GYY - ICAO: KGYY

KGYY Airport Location

State Indiana
County Lake
City Gary
KGYY Airport is 3 miles northwest of Gary, IN.
Latitude 41-37-02.1000N
Longitude 087-24-52.3000W
Elevation 596ft

KGYY Airport METARs

METAR KGYY 060615Z AUTO 08010KT 10SM +RA CLR 22/20 A2990 RMK AO2 LTG DSNT E T02200200
Altimeter 29.90"
Temperature 22.0°C (71.6°F)
Wind 80° at 10KT
Clouds Skies are clear.
Visibility 10.0mi
Time observed: 2022-07-06T06:15:00Z

KGYY Airport Details

Status Operational
Activation N/A
Ownership Public
Usage Public
Chart CHICAGO
ATC on-site Yes
Beacon schedule sunset-sunrise
Beacon color clear green

KGYY Airport Contacts

Owner GARY/CHICAGO ARPT AUTH DIST
Owner address 6001 INDUSTRIAL HWY, GARY, IN 46406
Owner phone 219-949-9722
Manager ORVILLE L TOLER
Manager address 8375 SR135 S BROWN CO., FREETOWN, IN 47235
Manager phone 812-988-7002

KGYY Airport (Gary/Chicago Intl) Radio Frequencies

KGYY (Airport) Radio Frequencies

UNICOM N/A
Common traffic advisory frequency (CTAF) 125.6